createdAt,value
2018-02-22T00:00:38.174Z,29.30
2018-02-22T00:03:07.177Z,31.50
2018-02-22T00:05:36.168Z,32.23
2018-02-22T00:08:05.298Z,30.20
2018-02-22T00:10:33.764Z,30.37
2018-02-22T00:13:01.983Z,28.77
2018-02-22T00:15:31.096Z,28.20
2018-02-22T00:18:00.205Z,34.27
2018-02-22T00:20:28.368Z,29.80
2018-02-22T00:22:57.388Z,29.30
2018-02-22T00:25:26.889Z,31.03
2018-02-22T00:27:55.186Z,32.20
2018-02-22T00:30:23.417Z,31.43
2018-02-22T00:32:52.503Z,30.50
2018-02-22T00:35:20.852Z,27.80
2018-02-22T00:37:49.375Z,29.73
2018-02-22T00:40:17.697Z,34.57
2018-02-22T00:42:46.281Z,33.37
2018-02-22T00:45:14.861Z,34.90
2018-02-22T00:47:43.246Z,37.07
2018-02-22T00:50:11.705Z,36.87
2018-02-22T00:52:40.868Z,33.10
2018-02-22T00:55:09.459Z,32.87
2018-02-22T00:57:37.659Z,34.93
2018-02-22T01:00:05.894Z,41.40
2018-02-22T01:02:34.905Z,30.73
2018-02-22T01:05:03.991Z,31.43
2018-02-22T01:07:32.992Z,32.70
2018-02-22T01:10:02.113Z,31.80
2018-02-22T01:12:31.066Z,31.47
2018-02-22T01:15:00.141Z,33.07
2018-02-22T01:17:28.391Z,30.20
2018-02-22T01:19:56.846Z,31.27
2018-02-22T01:22:25.091Z,30.93
2018-02-22T01:24:53.381Z,38.03
2018-02-22T01:27:22.380Z,32.27
2018-02-22T01:29:51.358Z,34.53
2018-02-22T01:32:20.446Z,34.43
2018-02-22T01:34:48.655Z,34.40
2018-02-22T01:37:16.868Z,36.03
2018-02-22T01:39:45.138Z,35.20
2018-02-22T01:42:13.364Z,33.90
2018-02-22T01:44:42.335Z,34.40
2018-02-22T01:47:10.572Z,35.13
2018-02-22T01:49:38.812Z,32.73
2018-02-22T01:52:07.785Z,35.30
2018-02-22T01:54:38.473Z,33.63
2018-02-22T01:57:06.683Z,34.20
2018-02-22T01:59:34.909Z,35.50
2018-02-22T02:02:03.142Z,35.13
2018-02-22T02:04:31.347Z,33.23
2018-02-22T02:06:59.621Z,35.43
2018-02-22T02:09:27.856Z,33.90
2018-02-22T02:11:56.057Z,35.70
2018-02-22T02:14:25.033Z,33.10
2018-02-22T02:16:53.357Z,34.30
2018-02-22T02:19:21.569Z,29.50
2018-02-22T02:21:49.768Z,34.50
2018-02-22T02:24:18.749Z,30.37
2018-02-22T02:26:46.953Z,31.63
2018-02-22T02:29:15.244Z,36.90
2018-02-22T02:31:43.475Z,34.63
2018-02-22T02:34:11.721Z,35.93
2018-02-22T02:36:40.053Z,36.77
2018-02-22T02:39:09.150Z,35.17
2018-02-22T02:41:38.219Z,33.50
2018-02-22T02:44:06.544Z,34.83
2018-02-22T02:46:34.869Z,41.90
2018-02-22T02:49:03.176Z,41.00
2018-02-22T02:51:32.148Z,35.30
2018-02-22T02:54:00.432Z,36.93
2018-02-22T02:56:29.526Z,29.27
2018-02-22T02:58:57.728Z,35.63
2018-02-22T03:01:26.289Z,33.50
2018-02-22T03:03:55.257Z,37.50
2018-02-22T03:06:23.509Z,35.80
2018-02-22T03:08:51.745Z,31.43
2018-02-22T03:11:20.827Z,36.63
2018-02-22T03:13:49.819Z,35.60
2018-02-22T03:16:18.049Z,35.33
2018-02-22T03:18:46.265Z,30.93
2018-02-22T03:21:14.466Z,33.97
2018-02-22T03:23:42.744Z,32.60
2018-02-22T03:26:10.945Z,35.43
2018-02-22T03:28:39.169Z,35.10
2018-02-22T03:31:07.429Z,31.43
2018-02-22T03:33:35.636Z,37.13
2018-02-22T03:36:04.612Z,34.03
2018-02-22T03:38:33.680Z,35.10
2018-02-22T03:41:01.969Z,35.27
2018-02-22T03:43:30.184Z,31.87
2018-02-22T03:45:58.498Z,34.47
2018-02-22T03:48:27.444Z,32.77
2018-02-22T03:50:55.713Z,37.77
2018-02-22T03:53:24.797Z,34.80
2018-02-22T03:55:53.021Z,38.37
2018-02-22T03:58:21.240Z,34.63
2018-02-22T04:00:49.482Z,34.23
2018-02-22T04:03:17.712Z,35.73
2018-02-22T04:05:45.917Z,37.73
2018-02-22T04:08:14.169Z,35.40
2018-02-22T04:10:42.394Z,38.20
2018-02-22T04:13:10.591Z,38.43
2018-02-22T04:15:38.840Z,34.37
2018-02-22T04:18:07.041Z,38.70
2018-02-22T04:20:35.334Z,36.63
2018-02-22T04:23:04.431Z,34.03
2018-02-22T04:25:32.616Z,38.97
2018-02-22T04:28:00.831Z,38.60
2018-02-22T04:30:29.124Z,38.17
2018-02-22T04:32:57.360Z,37.07
2018-02-22T04:35:25.618Z,35.47
2018-02-22T04:37:54.642Z,37.37
2018-02-22T04:40:22.942Z,37.03
2018-02-22T04:42:51.148Z,36.70
2018-02-22T04:45:21.383Z,34.63
2018-02-22T04:47:50.344Z,31.90
2018-02-22T04:50:18.655Z,34.03
2018-02-22T04:52:47.741Z,35.70
2018-02-22T04:55:16.728Z,32.27
2018-02-22T04:57:44.970Z,36.33
2018-02-22T05:00:13.244Z,38.53
2018-02-22T05:02:41.456Z,36.57
2018-02-22T05:05:10.425Z,35.93
2018-02-22T05:07:38.692Z,44.93
2018-02-22T05:10:06.896Z,35.67
2018-02-22T05:12:35.096Z,38.97
2018-02-22T05:15:03.388Z,43.73
2018-02-22T05:17:31.616Z,158.43
2018-02-22T05:19:59.842Z,112.93
2018-02-22T05:22:28.067Z,76.63
2018-02-22T05:24:56.305Z,61.37
2018-02-22T05:27:24.751Z,62.33
2018-02-22T05:29:53.112Z,53.70
2018-02-22T05:32:22.106Z,42.93
2018-02-22T05:34:50.535Z,27.33
2018-02-22T05:37:18.824Z,26.40
2018-02-22T05:39:47.079Z,25.63
2018-02-22T05:42:15.361Z,27.70
2018-02-22T05:44:43.593Z,23.23
2018-02-22T05:47:12.575Z,22.00
2018-02-22T05:49:40.824Z,18.63
2018-02-22T05:52:09.090Z,19.00
2018-02-22T05:54:37.337Z,19.10
2018-02-22T05:57:05.550Z,19.00
2018-02-22T05:59:33.772Z,18.00
2018-02-22T06:02:02.812Z,19.40
2018-02-22T06:04:31.073Z,18.97
2018-02-22T06:06:59.284Z,16.90
2018-02-22T06:09:27.502Z,17.83
2018-02-22T06:11:55.829Z,19.65
2018-02-22T06:14:24.086Z,17.13
2018-02-22T06:16:52.297Z,17.13
2018-02-22T06:19:20.724Z,19.53
2018-02-22T06:21:49.740Z,17.03
2018-02-22T06:24:17.990Z,15.57
2018-02-22T06:26:46.400Z,15.97
2018-02-22T06:29:14.631Z,23.27
2018-02-22T06:31:43.605Z,15.53
2018-02-22T06:34:11.814Z,16.63
2018-02-22T06:36:40.042Z,15.30
2018-02-22T06:39:08.264Z,15.90
2018-02-22T06:41:36.460Z,17.57
2018-02-22T06:44:05.965Z,15.43
2018-02-22T06:46:34.313Z,20.67
2018-02-22T06:49:03.297Z,15.80
2018-02-22T06:51:32.304Z,17.50
2018-02-22T06:54:00.522Z,17.13
2018-02-22T06:56:28.841Z,24.03
2018-02-22T06:58:57.830Z,16.80
2018-02-22T07:01:26.799Z,16.70
2018-02-22T07:03:55.013Z,19.03
2018-02-22T07:06:23.280Z,17.33
2018-02-22T07:08:51.492Z,17.40
2018-02-22T07:11:20.100Z,18.10
2018-02-22T07:13:48.438Z,21.13
2018-02-22T07:16:16.727Z,19.43
2018-02-22T07:18:44.924Z,19.37
2018-02-22T07:21:13.168Z,25.83
2018-02-22T07:23:41.372Z,23.20
2018-02-22T07:26:09.581Z,19.40
2018-02-22T07:28:37.882Z,24.50
2018-02-22T07:31:06.162Z,20.50
2018-02-22T07:33:34.416Z,19.87
2018-02-22T07:36:03.451Z,19.73
2018-02-22T07:38:31.680Z,21.07
2018-02-22T07:40:59.897Z,18.97
2018-02-22T07:43:28.276Z,22.00
2018-02-22T07:45:56.500Z,20.33
2018-02-22T07:48:24.692Z,19.17
2018-02-22T07:53:20.718Z,17.03
2018-02-22T07:55:48.951Z,17.60
2018-02-22T07:58:17.156Z,16.60
2018-02-22T08:00:45.390Z,16.43
2018-02-22T08:03:13.647Z,15.93
2018-02-22T08:05:41.809Z,16.43
2018-02-22T08:08:10.801Z,17.03
2018-02-22T08:10:39.901Z,15.23
2018-02-22T08:13:08.873Z,15.53
2018-02-22T08:15:37.156Z,16.23
2018-02-22T08:18:06.138Z,21.77
2018-02-22T08:20:34.341Z,16.03
2018-02-22T08:23:02.641Z,16.30
2018-02-22T08:25:30.821Z,15.80
2018-02-22T08:27:59.169Z,14.93
2018-02-22T08:30:27.453Z,14.80
2018-02-22T08:32:55.652Z,14.77
2018-02-22T08:35:23.901Z,15.50
2018-02-22T08:37:52.172Z,18.50
2018-02-22T08:40:21.305Z,15.33
2018-02-22T08:42:49.563Z,16.93
2018-02-22T08:45:18.558Z,16.23
2018-02-22T08:47:46.845Z,16.87
2018-02-22T08:50:15.135Z,15.90
2018-02-22T08:52:43.430Z,13.67
2018-02-22T08:55:11.693Z,13.17
2018-02-22T08:57:40.035Z,13.23
2018-02-22T09:00:08.515Z,13.23
2018-02-22T09:02:37.483Z,12.73
2018-02-22T09:05:05.666Z,15.00
2018-02-22T09:07:34.769Z,12.90
2018-02-22T09:10:02.977Z,16.97
2018-02-22T09:12:31.296Z,12.63
2018-02-22T09:14:59.682Z,17.80
2018-02-22T09:17:28.682Z,18.30
2018-02-22T09:19:57.796Z,12.60
2018-02-22T09:22:26.073Z,15.07
2018-02-22T09:24:54.300Z,18.03
2018-02-22T09:27:22.556Z,19.00
2018-02-22T09:29:50.780Z,12.67
2018-02-22T09:32:19.796Z,13.50
2018-02-22T09:34:49.041Z,15.23
2018-02-22T09:37:17.268Z,14.40
2018-02-22T09:39:45.483Z,13.87
2018-02-22T09:42:13.700Z,16.63
2018-02-22T09:44:42.741Z,15.03
2018-02-22T09:47:10.945Z,17.07
2018-02-22T09:49:39.133Z,17.27
2018-02-22T09:52:08.194Z,14.57
2018-02-22T09:54:36.385Z,18.07
2018-02-22T09:57:04.620Z,19.77
2018-02-22T09:59:32.976Z,14.50
2018-02-22T10:02:01.182Z,11.70
2018-02-22T10:04:29.386Z,13.20
2018-02-22T10:06:57.629Z,12.47
2018-02-22T10:09:25.845Z,16.73
2018-02-22T10:11:54.077Z,11.93
2018-02-22T10:14:22.316Z,12.60
2018-02-22T10:16:51.296Z,13.57
2018-02-22T10:19:20.271Z,11.93
2018-02-22T10:21:48.526Z,13.80
2018-02-22T10:24:16.717Z,13.17
2018-02-22T10:26:44.913Z,11.93
2018-02-22T10:29:13.973Z,12.93
2018-02-22T10:31:42.170Z,13.03
2018-02-22T10:34:10.402Z,12.60
2018-02-22T10:36:38.640Z,13.50
2018-02-22T10:39:07.631Z,13.47
2018-02-22T10:41:35.821Z,12.53
2018-02-22T10:44:04.093Z,12.47
2018-02-22T10:46:33.056Z,13.20
2018-02-22T10:49:01.294Z,13.23
2018-02-22T10:51:32.685Z,12.53
2018-02-22T10:54:01.094Z,13.43
2018-02-22T10:56:30.055Z,23.77
2018-02-22T10:58:58.312Z,13.00
2018-02-22T11:01:32.156Z,12.93
2018-02-22T11:04:01.200Z,13.87
2018-02-22T11:06:29.398Z,14.53
2018-02-22T11:08:57.597Z,12.60
2018-02-22T11:11:28.080Z,14.67
2018-02-22T11:13:56.296Z,14.03
2018-02-22T11:16:24.601Z,13.60
2018-02-22T11:18:52.833Z,15.57
2018-02-22T11:21:21.076Z,14.70
2018-02-22T11:23:49.612Z,13.97
2018-02-22T11:26:17.848Z,15.17
2018-02-22T11:28:46.041Z,17.93
2018-02-22T11:31:14.236Z,15.57
2018-02-22T11:33:43.309Z,15.43
2018-02-22T11:36:11.525Z,16.60
2018-02-22T11:38:39.758Z,15.30
2018-02-22T11:41:07.977Z,16.13
2018-02-22T11:43:37.485Z,15.90
2018-02-22T11:46:05.709Z,15.03
2018-02-22T11:48:33.961Z,14.63
2018-02-22T11:51:02.189Z,15.57
2018-02-22T11:53:31.161Z,15.40
2018-02-22T11:56:00.676Z,14.80
2018-02-22T11:58:28.876Z,15.23
2018-02-22T12:00:57.112Z,14.87
2018-02-22T12:03:25.429Z,17.50
2018-02-22T12:05:54.398Z,14.67
2018-02-22T12:08:22.646Z,18.30
2018-02-22T12:10:50.873Z,17.30
2018-02-22T12:13:19.076Z,17.17
2018-02-22T12:15:47.276Z,14.60
2018-02-22T12:18:15.725Z,16.87
2018-02-22T12:20:43.992Z,14.97
2018-02-22T12:23:12.195Z,14.23
2018-02-22T12:25:40.443Z,16.10
2018-02-22T12:28:08.668Z,13.60
2018-02-22T12:30:36.953Z,14.23
2018-02-22T12:33:05.231Z,12.73
2018-02-22T12:35:33.416Z,13.67
2018-02-22T12:38:02.492Z,13.23
2018-02-22T12:40:30.712Z,11.93
2018-02-22T12:42:58.914Z,11.50
2018-02-22T12:45:27.543Z,10.90
2018-02-22T12:47:55.744Z,13.47
2018-02-22T12:50:23.951Z,11.90
2018-02-22T12:52:52.193Z,12.77
2018-02-22T12:55:20.412Z,11.27
2018-02-22T12:57:48.672Z,12.10
2018-02-22T13:00:16.880Z,11.97
2018-02-22T13:02:45.136Z,12.17
2018-02-22T13:05:13.332Z,11.70
2018-02-22T13:07:41.539Z,11.60
2018-02-22T13:10:10.551Z,11.27
2018-02-22T13:12:38.846Z,16.57
2018-02-22T13:15:07.051Z,12.00
2018-02-22T13:17:35.344Z,12.07
2018-02-22T13:20:03.641Z,13.03
2018-02-22T13:22:31.856Z,12.60
2018-02-22T13:25:00.126Z,12.43
2018-02-22T13:27:28.429Z,11.83
2018-02-22T13:29:56.701Z,12.67
2018-02-22T13:32:24.969Z,15.27
2018-02-22T13:34:53.169Z,10.77
2018-02-22T13:37:28.104Z,12.20
2018-02-22T13:39:57.064Z,13.13
2018-02-22T13:42:25.395Z,11.90
2018-02-22T13:45:06.139Z,12.60
2018-02-22T13:47:34.381Z,11.27
2018-02-22T13:50:14.317Z,10.73
2018-02-22T13:52:42.523Z,11.93
2018-02-22T13:55:10.713Z,12.60
2018-02-22T13:57:38.935Z,13.27
2018-02-22T14:00:07.149Z,13.87
2018-02-22T14:02:35.388Z,12.57
2018-02-22T14:05:04.921Z,13.40
2018-02-22T14:07:33.113Z,12.60
2018-02-22T14:10:01.324Z,13.70
2018-02-22T14:12:29.634Z,13.30
2018-02-22T14:14:57.838Z,14.53
2018-02-22T14:17:26.049Z,13.27
2018-02-22T14:19:55.068Z,13.30
2018-02-22T14:22:23.280Z,12.50
2018-02-22T14:27:16.392Z,13.87
2018-02-22T14:29:44.590Z,13.93
2018-02-22T14:32:12.818Z,16.63
2018-02-22T14:34:41.053Z,13.00
2018-02-22T14:37:09.262Z,14.77
2018-02-22T14:39:37.529Z,13.90
2018-02-22T14:42:05.850Z,13.70
2018-02-22T14:44:34.821Z,12.93
2018-02-22T14:47:03.118Z,12.30
2018-02-22T14:49:31.497Z,14.20
2018-02-22T14:51:59.750Z,13.57
2018-02-22T14:54:28.752Z,19.87
2018-02-22T14:56:57.838Z,15.47
2018-02-22T14:59:26.060Z,14.17
2018-02-22T15:01:54.296Z,13.93
2018-02-22T15:04:22.514Z,13.53
2018-02-22T15:06:50.740Z,13.90
2018-02-22T15:09:18.924Z,14.43
2018-02-22T15:11:48.027Z,15.43
2018-02-22T15:14:16.987Z,14.43
2018-02-22T15:16:45.177Z,14.47
2018-02-22T15:19:14.459Z,13.23
2018-02-22T15:21:42.647Z,13.37
2018-02-22T15:24:10.957Z,13.47
2018-02-22T15:26:39.260Z,13.93
2018-02-22T15:29:07.460Z,18.70
2018-02-22T15:31:35.676Z,17.87
2018-02-22T15:34:04.967Z,14.70
2018-02-22T15:36:33.958Z,14.53
2018-02-22T15:39:02.951Z,16.03
2018-02-22T15:41:32.015Z,16.83
2018-02-22T15:44:00.204Z,17.37
2018-02-22T15:46:29.877Z,16.43
2018-02-22T15:48:58.945Z,14.93
2018-02-22T15:51:27.153Z,13.83
2018-02-22T15:53:55.357Z,13.53
2018-02-22T15:56:23.693Z,13.57
2018-02-22T15:58:52.625Z,14.53
2018-02-22T16:01:20.914Z,14.77
2018-02-22T16:03:50.098Z,14.30
2018-02-22T16:06:18.360Z,14.90
2018-02-22T16:08:46.570Z,17.13
2018-02-22T16:11:15.629Z,16.23
2018-02-22T16:13:43.917Z,18.20
2018-02-22T16:16:12.265Z,20.37
2018-02-22T16:18:40.844Z,17.63
2018-02-22T16:21:09.061Z,16.27
2018-02-22T16:23:37.261Z,17.03
2018-02-22T16:26:05.501Z,19.47
2018-02-22T16:28:33.731Z,19.73
2018-02-22T16:31:02.736Z,22.97
2018-02-22T16:33:31.049Z,20.47
2018-02-22T16:35:59.250Z,20.47
2018-02-22T16:38:28.225Z,20.10
2018-02-22T16:40:56.510Z,16.77
2018-02-22T16:43:24.709Z,15.40
2018-02-22T16:45:52.934Z,15.63
2018-02-22T16:48:21.203Z,15.37
2018-02-22T16:50:49.470Z,17.90
2018-02-22T16:53:17.680Z,18.57
2018-02-22T16:55:45.929Z,20.00
2018-02-22T16:58:14.125Z,21.87
2018-02-22T17:00:42.342Z,19.53
2018-02-22T17:03:11.328Z,19.73
2018-02-22T17:05:39.557Z,18.90
2018-02-22T17:08:07.757Z,21.37
2018-02-22T17:10:36.803Z,25.07
2018-02-22T17:13:05.009Z,19.93
2018-02-22T17:15:33.218Z,20.90
2018-02-22T17:18:01.456Z,20.53
2018-02-22T17:20:29.648Z,22.37
2018-02-22T17:22:58.612Z,29.90
2018-02-22T17:25:26.428Z,28.53
2018-02-22T17:28:00.300Z,26.27
2018-02-22T17:30:34.201Z,33.13
2018-02-22T17:33:02.401Z,27.60
2018-02-22T17:35:37.158Z,39.40
2018-02-22T17:38:06.268Z,34.57
2018-02-22T17:40:55.729Z,29.13
2018-02-22T17:43:23.982Z,26.73
2018-02-22T17:45:52.179Z,26.93
2018-02-22T17:48:21.200Z,21.50
2018-02-22T17:50:49.387Z,25.43
2018-02-22T17:53:17.769Z,25.83
2018-02-22T17:55:46.010Z,25.33
2018-02-22T17:58:14.397Z,24.93
2018-02-22T18:00:42.608Z,22.97
2018-02-22T18:03:10.936Z,21.40
2018-02-22T18:05:39.144Z,21.33
2018-02-22T18:08:07.359Z,20.43
2018-02-22T18:10:36.386Z,18.53
2018-02-22T18:13:04.585Z,22.37
2018-02-22T18:15:33.156Z,20.67
2018-02-22T18:18:01.487Z,22.80
2018-02-22T18:20:30.507Z,20.80
2018-02-22T18:22:58.812Z,21.20
2018-02-22T18:25:27.081Z,19.10
2018-02-22T18:27:56.155Z,20.30
2018-02-22T18:30:24.410Z,26.30
2018-02-22T18:32:53.508Z,25.97
2018-02-22T18:35:22.465Z,22.00
2018-02-22T18:37:58.520Z,18.50
2018-02-22T18:40:32.468Z,19.17
2018-02-22T18:43:01.533Z,21.17
2018-02-22T18:45:29.735Z,20.83
2018-02-22T18:47:58.705Z,21.43
2018-02-22T18:50:26.956Z,21.90
2018-02-22T18:52:55.179Z,24.77
2018-02-22T18:55:24.201Z,21.40
2018-02-22T18:57:52.542Z,20.53
2018-02-22T19:00:21.550Z,22.37
2018-02-22T19:02:50.551Z,23.27
2018-02-22T19:05:18.854Z,26.23
2018-02-22T19:07:47.116Z,23.30
2018-02-22T19:10:15.625Z,21.20
2018-02-22T19:12:43.925Z,24.97
2018-02-22T19:15:12.185Z,23.57
2018-02-22T19:17:40.524Z,22.37
2018-02-22T19:20:08.776Z,22.17
2018-02-22T19:22:36.969Z,19.13
2018-02-22T19:25:05.349Z,20.87
2018-02-22T19:27:34.035Z,23.73
2018-02-22T19:30:02.332Z,18.90
2018-02-22T19:32:30.580Z,20.23
2018-02-22T19:34:58.872Z,20.33
2018-02-22T19:37:27.179Z,18.90
2018-02-22T19:39:57.609Z,18.53
2018-02-22T19:42:26.084Z,20.97
2018-02-22T19:44:55.492Z,21.43
2018-02-22T19:47:23.727Z,21.53
2018-02-22T19:49:52.817Z,21.03
2018-02-22T19:52:22.221Z,22.47
2018-02-22T19:54:51.285Z,20.23
2018-02-22T19:57:19.534Z,20.07
2018-02-22T19:59:47.758Z,18.70
2018-02-22T20:02:16.777Z,18.87
2018-02-22T20:04:45.058Z,17.63
2018-02-22T20:07:13.265Z,17.80
2018-02-22T20:09:42.238Z,18.80
2018-02-22T20:12:10.636Z,17.57
2018-02-22T20:14:38.914Z,26.53
2018-02-22T20:17:07.128Z,27.03
2018-02-22T20:19:35.541Z,27.07
2018-02-22T20:22:03.820Z,29.97
2018-02-22T20:24:32.066Z,34.33
2018-02-22T20:27:00.376Z,33.03
2018-02-22T20:29:28.616Z,25.50
2018-02-22T20:31:56.940Z,30.50
2018-02-22T20:34:25.200Z,25.77
2018-02-22T20:36:53.478Z,29.13
2018-02-22T20:39:22.869Z,23.50
2018-02-22T20:41:51.128Z,35.00
2018-02-22T20:44:20.144Z,22.23
2018-02-22T20:46:48.352Z,24.97
2018-02-22T20:49:16.582Z,36.97
2018-02-22T20:51:49.561Z,19.20
2018-02-22T20:54:18.680Z,28.80
2018-02-22T20:56:46.926Z,40.87
2018-02-22T20:59:15.650Z,27.90
2018-02-22T21:01:43.913Z,23.23
2018-02-22T21:04:13.675Z,21.70
2018-02-22T21:06:41.873Z,18.77
2018-02-22T21:09:10.112Z,23.37
2018-02-22T21:11:38.334Z,19.30
2018-02-22T21:14:07.314Z,19.27
2018-02-22T21:16:36.771Z,19.77
2018-02-22T21:19:05.037Z,22.83
2018-02-22T21:21:33.249Z,20.43
2018-02-22T21:24:01.482Z,20.70
2018-02-22T21:26:29.698Z,20.77
2018-02-22T21:28:57.910Z,21.63
2018-02-22T21:31:26.916Z,19.73
2018-02-22T21:33:55.373Z,20.83
2018-02-22T21:36:23.571Z,20.27
2018-02-22T21:38:52.596Z,17.97
2018-02-22T21:41:22.087Z,19.93
2018-02-22T21:43:50.294Z,16.97
2018-02-22T21:46:18.537Z,20.97
2018-02-22T21:48:47.487Z,19.33
2018-02-22T21:51:15.849Z,20.53
2018-02-22T21:53:44.164Z,18.00
2018-02-22T21:56:12.383Z,21.20
2018-02-22T21:58:40.774Z,21.07
2018-02-22T22:01:09.037Z,20.03
2018-02-22T22:03:37.240Z,20.53
2018-02-22T22:06:05.668Z,19.63
2018-02-22T22:08:34.341Z,21.30
2018-02-22T22:11:02.874Z,20.13
2018-02-22T22:13:31.903Z,19.33
2018-02-22T22:16:00.905Z,19.60
2018-02-22T22:18:29.888Z,18.80
2018-02-22T22:20:58.083Z,16.87
2018-02-22T22:23:28.762Z,19.23
2018-02-22T22:25:56.965Z,24.30
2018-02-22T22:28:25.211Z,23.67
2018-02-22T22:30:53.484Z,22.47
2018-02-22T22:33:21.688Z,19.73
2018-02-22T22:35:49.893Z,20.97
2018-02-22T22:38:18.126Z,20.87
2018-02-22T22:40:46.346Z,19.73
2018-02-22T22:43:14.700Z,20.57
2018-02-22T22:45:44.105Z,20.57
2018-02-22T22:48:13.072Z,20.40
2018-02-22T22:50:41.350Z,19.30
2018-02-22T22:53:09.607Z,19.53
2018-02-22T22:55:37.849Z,21.47
2018-02-22T22:58:06.065Z,20.53
2018-02-22T23:00:34.299Z,19.97
2018-02-22T23:03:02.504Z,19.53
2018-02-22T23:05:30.696Z,18.97
2018-02-22T23:08:00.169Z,19.60
2018-02-22T23:10:28.592Z,19.90
2018-02-22T23:12:56.870Z,26.93
2018-02-22T23:15:25.093Z,22.10
2018-02-22T23:17:53.296Z,19.90
2018-02-22T23:20:21.496Z,19.07
2018-02-22T23:22:49.748Z,19.13
2018-02-22T23:25:17.953Z,21.27
2018-02-22T23:27:46.930Z,19.40
2018-02-22T23:30:15.337Z,20.57
2018-02-22T23:32:44.408Z,20.13
2018-02-22T23:35:12.578Z,21.17
2018-02-22T23:37:40.810Z,21.53
2018-02-22T23:40:12.587Z,19.30
2018-02-22T23:42:43.229Z,23.00
2018-02-22T23:45:11.432Z,20.23
2018-02-22T23:47:39.644Z,23.80
2018-02-22T23:50:07.930Z,21.77
2018-02-22T23:52:36.133Z,21.63
2018-02-22T23:55:04.416Z,22.30
2018-02-22T23:57:32.772Z,22.47
